Time;durP1;ratioP1;P1;durP2;ratioP2;P2;SDS_P1;SDS_P2;PMS_P1;PMS_P2;Temp;Humidity;BMP_temperature;BMP_pressure;BME280_temperature;BME280_humidity;BME280_pressure;Samples;Min_cycle;Max_cycle;Signal;HPM_P1;HPM_P2
2022/01/25 08:39:33;;;;;;;114.93;44.25;;;;;;;;;;4663582;22;10001480;-76
2022/01/25 08:42:02;;;;;;;134.07;52.22;;;;;;;;;;5005326;28;20777;-77
2022/01/25 08:44:28;;;;;;;132.30;53.17;;;;;;;;;;4985618;28;20041;-77
2022/01/25 08:46:54;;;;;;;143.38;54.17;;;;;;;;;;4999555;28;20029;-77
2022/01/25 08:49:21;;;;;;;151.32;54.83;;;;;;;;;;4991368;28;20037;-77
2022/01/25 08:51:50;;;;;;;167.70;67.97;;;;;;;;;;4987984;28;20557;-85
2022/01/25 08:54:17;;;;;;;178.93;67.22;;;;;;;;;;4990546;28;20072;-86
2022/01/25 08:56:44;;;;;;;179.77;69.70;;;;;;;;;;4964872;28;20567;-84
2022/01/25 08:59:11;;;;;;;170.75;67.93;;;;;;;;;;4960236;28;20451;-84
2022/01/25 09:01:38;;;;;;;183.45;69.95;;;;;;;;;;4953275;28;20058;-85
2022/01/25 09:04:05;;;;;;;163.90;66.28;;;;;;;;;;4949774;28;20073;-85
2022/01/25 09:06:34;;;;;;;158.57;64.03;;;;;;;;;;4964371;28;20027;-85
2022/01/25 09:09:10;;;;;;;171.48;66.47;;;;;;;;;;4955619;28;20027;-85
2022/01/25 09:11:37;;;;;;;175.60;67.53;;;;;;;;;;4951721;28;20059;-85
2022/01/25 09:14:13;;;;;;;164.57;66.22;;;;;;;;;;4965137;28;20062;-84
2022/01/25 09:16:39;;;;;;;163.68;65.68;;;;;;;;;;4947789;28;20030;-85
2022/01/25 09:19:12;;;;;;;164.30;69.45;;;;;;;;;;4949743;28;20122;-85
2022/01/25 09:21:39;;;;;;;161.10;67.82;;;;;;;;;;4961119;28;20394;-84
2022/01/25 09:24:09;;;;;;;162.93;68.18;;;;;;;;;;4945760;28;20119;-84
2022/01/25 09:26:36;;;;;;;166.65;68.03;;;;;;;;;;4974657;28;20693;-85
2022/01/25 09:29:07;;;;;;;176.15;71.15;;;;;;;;;;4953566;28;20043;-85
2022/01/25 09:31:34;;;;;;;167.15;69.95;;;;;;;;;;4978000;28;20027;-85
2022/01/25 09:34:01;;;;;;;166.50;70.78;;;;;;;;;;4952976;28;20031;-84
2022/01/25 09:36:27;;;;;;;174.55;71.53;;;;;;;;;;4966093;28;20031;-84
2022/01/25 09:38:57;;;;;;;176.02;70.70;;;;;;;;;;4945760;28;20023;-86
2022/01/25 09:41:24;;;;;;;176.27;69.93;;;;;;;;;;4948889;28;20116;-85
2022/01/25 09:43:51;;;;;;;199.80;76.50;;;;;;;;;;4954494;29;20493;-86
2022/01/25 09:46:17;;;;;;;191.77;75.43;;;;;;;;;;4939424;29;20118;-87
2022/01/25 09:48:44;;;;;;;207.95;80.28;;;;;;;;;;4950178;29;20058;-86
2022/01/25 09:51:11;;;;;;;200.13;80.18;;;;;;;;;;4940265;29;20123;-86
2022/01/25 09:53:38;;;;;;;191.52;75.40;;;;;;;;;;4956872;29;20023;-86
2022/01/25 09:56:13;;;;;;;184.38;71.82;;;;;;;;;;4934274;29;20042;-86
2022/01/25 09:58:39;;;;;;;189.63;70.40;;;;;;;;;;4943168;29;20038;-86
2022/01/25 10:01:07;;;;;;;182.57;72.43;;;;;;;;;;4953871;29;20042;-85
2022/01/25 10:03:41;;;;;;;187.38;70.05;;;;;;;;;;4943474;28;20035;-85
2022/01/25 10:06:22;;;;;;;194.50;69.32;;;;;;;;;;4975281;28;20030;-85
2022/01/25 10:08:53;;;;;;;178.65;67.22;;;;;;;;;;4945705;29;20035;-86
2022/01/25 10:11:22;;;;;;;196.52;66.60;;;;;;;;;;4957522;28;20101;-86
2022/01/25 10:13:51;;;;;;;177.23;66.10;;;;;;;;;;4957368;28;20371;-85
2022/01/25 10:16:18;;;;;;;173.88;65.57;;;;;;;;;;4939928;29;20490;-86
2022/01/25 10:18:52;;;;;;;170.07;63.15;;;;;;;;;;4950860;29;20090;-85
2022/01/25 10:21:20;;;;;;;173.00;63.42;;;;;;;;;;4940348;29;20035;-85
2022/01/25 10:24:00;;;;;;;165.52;61.75;;;;;;;;;;4944367;28;20058;-84
2022/01/25 10:26:29;;;;;;;169.05;61.30;;;;;;;;;;4964412;28;20034;-86
2022/01/25 10:28:56;;;;;;;190.05;66.53;;;;;;;;;;4944243;29;20024;-85
2022/01/25 10:31:32;;;;;;;179.45;62.90;;;;;;;;;;4935766;29;20486;-85
2022/01/25 10:33:58;;;;;;;170.00;60.78;;;;;;;;;;4947971;29;20031;-86
2022/01/25 10:36:25;;;;;;;185.57;66.80;;;;;;;;;;4938849;29;20042;-85
2022/01/25 10:38:56;;;;;;;185.07;66.50;;;;;;;;;;4937553;29;20027;-86
2022/01/25 10:41:26;;;;;;;178.98;65.38;;;;;;;;;;4954330;29;20053;-86
2022/01/25 10:43:53;;;;;;;167.82;61.80;;;;;;;;;;4938852;29;20406;-85
2022/01/25 10:46:25;;;;;;;175.15;63.88;;;;;;;;;;4954172;29;20516;-85
2022/01/25 10:48:54;;;;;;;155.30;59.75;;;;;;;;;;4949250;28;20055;-84
2022/01/25 10:51:25;;;;;;;190.63;68.18;;;;;;;;;;4946259;28;20435;-85
2022/01/25 10:53:58;;;;;;;198.20;67.07;;;;;;;;;;4935015;29;20031;-85
2022/01/25 10:56:25;;;;;;;193.90;69.63;;;;;;;;;;4957752;28;20485;-85
2022/01/25 10:58:52;;;;;;;193.82;70.07;;;;;;;;;;4953866;29;20106;-85
2022/01/25 11:01:32;;;;;;;208.50;72.40;;;;;;;;;;4953747;29;20398;-86
2022/01/25 11:04:10;;;;;;;196.48;72.45;;;;;;;;;;4936131;29;20028;-85
2022/01/25 11:06:37;;;;;;;189.90;70.07;;;;;;;;;;4938788;29;20087;-85
2022/01/25 11:09:05;;;;;;;197.18;69.45;;;;;;;;;;4942287;28;20035;-85
2022/01/25 11:11:40;;;;;;;175.52;67.53;;;;;;;;;;4937216;29;20028;-85
2022/01/25 11:16:59;;;;;;;161.68;60.38;;;;;;;;;;4936417;29;20058;-85
2022/01/25 11:19:26;;;;;;;170.63;59.92;;;;;;;;;;4953292;28;20031;-85
2022/01/25 11:21:53;;;;;;;159.57;56.65;;;;;;;;;;4939039;28;20061;-85
2022/01/25 11:24:20;;;;;;;179.90;60.28;;;;;;;;;;4953309;29;20027;-85
2022/01/25 11:26:47;;;;;;;158.80;57.92;;;;;;;;;;4954581;29;20027;-84
2022/01/25 11:29:14;;;;;;;165.75;63.90;;;;;;;;;;4949377;29;20490;-84
2022/01/25 11:31:43;;;;;;;169.20;62.20;;;;;;;;;;4937175;29;20023;-85
2022/01/25 11:34:11;;;;;;;175.30;62.30;;;;;;;;;;4937501;29;20023;-85
2022/01/25 11:36:51;;;;;;;192.63;70.60;;;;;;;;;;4936829;29;20143;-85
2022/01/25 11:39:22;;;;;;;173.40;65.55;;;;;;;;;;4938215;29;20031;-85
2022/01/25 11:41:49;;;;;;;174.35;63.30;;;;;;;;;;4921821;29;20698;-85
2022/01/25 11:44:26;;;;;;;190.02;67.38;;;;;;;;;;4917852;29;20031;-85
2022/01/25 11:46:56;;;;;;;206.30;72.82;;;;;;;;;;4918080;29;20043;-86
2022/01/25 11:49:23;;;;;;;202.43;72.82;;;;;;;;;;4917223;29;20028;-85
2022/01/25 11:52:06;;;;;;;180.50;65.22;;;;;;;;;;4935720;29;20027;-84
2022/01/25 11:54:36;;;;;;;162.50;62.30;;;;;;;;;;4919503;29;20028;-84
2022/01/25 11:57:13;;;;;;;186.40;75.80;;;;;;;;;;4921276;29;20082;-85
2022/01/25 11:59:43;;;;;;;211.73;87.13;;;;;;;;;;4922449;29;20748;-85
2022/01/25 12:02:09;;;;;;;198.80;82.13;;;;;;;;;;4940333;29;20469;-84
2022/01/25 12:04:43;;;;;;;251.57;95.07;;;;;;;;;;4943469;29;20062;-85
2022/01/25 12:07:24;;;;;;;205.77;82.55;;;;;;;;;;4949739;29;20077;-84
2022/01/25 12:10:03;;;;;;;200.40;78.28;;;;;;;;;;4947476;29;20120;-84
2022/01/25 12:12:38;;;;;;;226.68;83.10;;;;;;;;;;4930514;29;20023;-84
2022/01/25 12:15:13;;;;;;;208.82;80.85;;;;;;;;;;4921670;29;20087;-84
2022/01/25 12:17:40;;;;;;;193.57;77.28;;;;;;;;;;4948237;29;20032;-85
2022/01/25 12:20:21;;;;;;;201.30;76.68;;;;;;;;;;4926764;29;20028;-83
2022/01/25 12:23:09;;;;;;;204.68;70.32;;;;;;;;;;4938825;29;20023;-84
2022/01/25 12:25:49;;;;;;;192.73;67.15;;;;;;;;;;4920200;29;20044;-85
2022/01/25 12:28:30;;;;;;;193.20;66.85;;;;;;;;;;4930856;29;20032;-84
2022/01/25 12:31:04;;;;;;;193.57;65.70;;;;;;;;;;4914339;29;20032;-84
2022/01/25 12:33:35;;;;;;;189.30;63.08;;;;;;;;;;4917776;29;20032;-84
2022/01/25 12:36:04;;;;;;;186.43;65.00;;;;;;;;;;4937228;29;20028;-84
2022/01/25 12:38:44;;;;;;;188.38;62.67;;;;;;;;;;4929455;29;20095;-83
2022/01/25 12:41:18;;;;;;;183.98;67.38;;;;;;;;;;4919820;29;20050;-83
2022/01/25 12:43:50;;;;;;;198.48;67.90;;;;;;;;;;4927353;29;20023;-83
2022/01/25 12:46:19;;;;;;;189.43;64.05;;;;;;;;;;4924302;29;20048;-84
2022/01/25 12:48:49;;;;;;;192.93;67.90;;;;;;;;;;4926717;29;20031;-83
2022/01/25 12:51:35;;;;;;;187.75;63.33;;;;;;;;;;4922823;29;20040;-83
2022/01/25 12:54:04;;;;;;;173.00;65.25;;;;;;;;;;4915770;29;20027;-82
2022/01/25 12:56:34;;;;;;;187.13;66.68;;;;;;;;;;4921799;29;20032;-82
2022/01/25 12:59:02;;;;;;;194.10;66.18;;;;;;;;;;4920926;29;20091;-82
2022/01/25 13:01:29;;;;;;;183.57;62.92;;;;;;;;;;4921757;29;20122;-83
2022/01/25 13:03:59;;;;;;;178.50;60.95;;;;;;;;;;4917563;29;20039;-82
2022/01/25 13:06:30;;;;;;;181.57;63.13;;;;;;;;;;4905230;29;20035;-83
2022/01/25 13:09:20;;;;;;;191.20;63.03;;;;;;;;;;4917281;29;20031;-83
2022/01/25 13:17:07;;;;;;;189.65;66.55;;;;;;;;;;4937815;29;20139;-83
2022/01/25 13:19:38;;;;;;;184.25;64.70;;;;;;;;;;4922087;29;20500;-83
2022/01/25 13:22:08;;;;;;;181.20;62.90;;;;;;;;;;4932165;29;20082;-83
2022/01/25 13:24:46;;;;;;;176.30;65.97;;;;;;;;;;4915038;29;20032;-84
2022/01/25 13:27:14;;;;;;;185.60;62.35;;;;;;;;;;4929213;29;20090;-84
2022/01/25 13:32:50;;;;;;;188.05;63.38;;;;;;;;;;4900715;29;20032;-82
2022/01/25 13:35:24;;;;;;;192.88;64.93;;;;;;;;;;4941155;29;20024;-80
2022/01/25 13:38:05;;;;;;;186.68;63.28;;;;;;;;;;4915396;29;20067;-81
2022/01/25 13:40:43;;;;;;;192.25;65.40;;;;;;;;;;4939822;29;20124;-82
2022/01/25 13:45:53;;;;;;;180.32;61.55;;;;;;;;;;4931014;29;20031;-81
2022/01/25 13:48:24;;;;;;;177.13;63.42;;;;;;;;;;4952950;29;20023;-82
2022/01/25 13:50:55;;;;;;;182.10;61.80;;;;;;;;;;4944195;29;20443;-81
2022/01/25 13:53:21;;;;;;;176.88;59.38;;;;;;;;;;4969747;28;20023;-82
2022/01/25 13:55:53;;;;;;;176.00;58.30;;;;;;;;;;4955470;29;20031;-81
2022/01/25 13:58:24;;;;;;;171.07;60.03;;;;;;;;;;4935416;29;20074;-82
2022/01/25 14:00:51;;;;;;;163.75;59.75;;;;;;;;;;4950142;29;20068;-81
2022/01/25 14:03:27;;;;;;;184.15;62.90;;;;;;;;;;4955091;29;20702;-82
2022/01/25 14:05:54;;;;;;;173.98;59.47;;;;;;;;;;4942639;29;20027;-82
2022/01/25 14:08:33;;;;;;;163.45;57.47;;;;;;;;;;4936080;29;20069;-82
2022/01/25 14:11:02;;;;;;;175.90;60.97;;;;;;;;;;4944268;29;20027;-82
2022/01/25 14:24:36;;;;;;;172.32;61.88;;;;;;;;;;4937470;29;20035;-81
2022/01/25 14:27:28;;;;;;;191.95;65.75;;;;;;;;;;4944658;28;20531;-82
2022/01/25 14:29:55;;;;;;;202.30;65.32;;;;;;;;;;4940036;29;20027;-81
2022/01/25 14:32:32;;;;;;;192.68;65.35;;;;;;;;;;4936326;29;20028;-81
2022/01/25 14:35:00;;;;;;;178.68;62.03;;;;;;;;;;4940279;29;20032;-81
2022/01/25 14:37:27;;;;;;;175.60;62.17;;;;;;;;;;4901037;29;20024;-81
2022/01/25 14:39:53;;;;;;;186.38;61.50;;;;;;;;;;4951805;29;20038;-81
2022/01/25 14:42:21;;;;;;;174.13;65.38;;;;;;;;;;4956645;28;20042;-81
2022/01/25 14:44:47;;;;;;;215.80;80.95;;;;;;;;;;4957942;28;20035;-82
2022/01/25 14:47:17;;;;;;;234.63;81.40;;;;;;;;;;4939947;29;20447;-80
2022/01/25 14:49:48;;;;;;;213.48;79.03;;;;;;;;;;4954096;29;20034;-81
2022/01/25 14:52:20;;;;;;;208.23;78.13;;;;;;;;;;4955166;28;20034;-81
2022/01/25 14:54:46;;;;;;;223.13;77.10;;;;;;;;;;4938230;29;20034;-81
2022/01/25 14:57:14;;;;;;;209.25;75.95;;;;;;;;;;4938622;29;20030;-81
2022/01/25 14:59:49;;;;;;;194.00;72.38;;;;;;;;;;4938774;29;20039;-81
2022/01/25 15:02:20;;;;;;;192.55;73.82;;;;;;;;;;4919438;29;20083;-81
2022/01/25 15:04:50;;;;;;;204.73;74.72;;;;;;;;;;4942409;29;20534;-81
2022/01/25 15:07:20;;;;;;;205.50;76.72;;;;;;;;;;4937923;29;20035;-81
2022/01/25 15:09:52;;;;;;;207.45;74.72;;;;;;;;;;4952079;28;20045;-81
2022/01/25 15:12:20;;;;;;;222.63;77.35;;;;;;;;;;4972871;28;20035;-82
2022/01/25 15:15:09;;;;;;;223.75;76.75;;;;;;;;;;4973190;28;20378;-81
2022/01/25 15:17:36;;;;;;;211.95;74.32;;;;;;;;;;4975013;28;20023;-80
2022/01/25 15:20:04;;;;;;;194.43;69.43;;;;;;;;;;4973693;28;20054;-80
2022/01/25 15:22:31;;;;;;;193.07;70.53;;;;;;;;;;4970506;28;20046;-81
2022/01/25 15:24:59;;;;;;;204.77;68.85;;;;;;;;;;4937670;29;20035;-80
2022/01/25 15:27:29;;;;;;;197.05;70.40;;;;;;;;;;4939271;29;20027;-81
2022/01/25 15:29:56;;;;;;;200.45;70.28;;;;;;;;;;4930993;29;20031;-82
2022/01/25 15:32:22;;;;;;;196.60;69.10;;;;;;;;;;4943816;29;20023;-81
2022/01/25 15:34:49;;;;;;;186.35;69.28;;;;;;;;;;4933889;29;20032;-82
2022/01/25 15:37:15;;;;;;;208.55;72.15;;;;;;;;;;4967399;28;20433;-81
2022/01/25 15:39:43;;;;;;;174.88;64.68;;;;;;;;;;4940821;29;20399;-81
2022/01/25 15:42:11;;;;;;;177.80;65.63;;;;;;;;;;4929206;29;20055;-81
2022/01/25 15:44:43;;;;;;;178.75;66.80;;;;;;;;;;4955773;29;20205;-81
2022/01/25 15:47:11;;;;;;;180.27;67.07;;;;;;;;;;4938242;29;20031;-82
2022/01/25 15:49:39;;;;;;;178.82;64.25;;;;;;;;;;4937732;29;20039;-81
2022/01/25 15:52:06;;;;;;;187.32;64.25;;;;;;;;;;4953619;28;20034;-81
2022/01/25 15:54:33;;;;;;;176.63;64.57;;;;;;;;;;4957279;28;20078;-82
2022/01/25 15:57:00;;;;;;;176.65;60.38;;;;;;;;;;4946091;29;20482;-81
2022/01/25 15:59:27;;;;;;;180.93;63.72;;;;;;;;;;4954025;29;20047;-81
2022/01/25 16:01:58;;;;;;;164.85;60.28;;;;;;;;;;4954033;29;20030;-81
2022/01/25 16:04:27;;;;;;;180.77;62.05;;;;;;;;;;4953839;29;20038;-80
2022/01/25 16:06:54;;;;;;;174.85;60.15;;;;;;;;;;4938454;29;20032;-81
2022/01/25 16:09:23;;;;;;;172.93;59.80;;;;;;;;;;4953521;29;20801;-80
2022/01/25 16:11:50;;;;;;;189.82;64.13;;;;;;;;;;4937461;29;20023;-81
2022/01/25 16:14:18;;;;;;;173.98;61.03;;;;;;;;;;4954631;29;20034;-81
2022/01/25 16:16:46;;;;;;;193.93;65.65;;;;;;;;;;4954606;29;20036;-81
2022/01/25 16:19:13;;;;;;;173.98;59.30;;;;;;;;;;4940398;29;20502;-80
2022/01/25 16:21:39;;;;;;;190.55;65.20;;;;;;;;;;4954155;28;20023;-81
2022/01/25 16:24:07;;;;;;;167.43;60.47;;;;;;;;;;4956107;28;20868;-80
2022/01/25 16:26:34;;;;;;;187.35;61.13;;;;;;;;;;4973984;28;20477;-80
2022/01/25 16:29:00;;;;;;;182.88;63.20;;;;;;;;;;4956422;28;20034;-80
2022/01/25 16:31:32;;;;;;;194.15;66.85;;;;;;;;;;4957210;28;20113;-80
2022/01/25 16:34:00;;;;;;;240.57;84.65;;;;;;;;;;4956651;28;20034;-80
2022/01/25 16:36:29;;;;;;;215.25;77.50;;;;;;;;;;4951442;29;20079;-80
2022/01/25 16:38:55;;;;;;;215.00;75.60;;;;;;;;;;4953337;29;20093;-80
2022/01/25 16:41:22;;;;;;;218.85;76.28;;;;;;;;;;4936967;29;20755;-80
2022/01/25 16:43:54;;;;;;;221.23;79.68;;;;;;;;;;4937810;29;20031;-80
2022/01/25 16:46:22;;;;;;;200.48;71.35;;;;;;;;;;4936872;29;20169;-80
2022/01/25 16:48:52;;;;;;;190.40;67.97;;;;;;;;;;4937478;29;20208;-80
2022/01/25 16:51:19;;;;;;;185.52;65.63;;;;;;;;;;4954996;28;20379;-79
2022/01/25 16:53:48;;;;;;;192.13;66.03;;;;;;;;;;4940960;29;20385;-79
2022/01/25 16:56:16;;;;;;;190.32;64.97;;;;;;;;;;4941024;29;20474;-79
2022/01/25 16:58:44;;;;;;;198.27;67.30;;;;;;;;;;4956931;29;20378;-79
2022/01/25 17:01:10;;;;;;;182.45;65.43;;;;;;;;;;4958471;29;20023;-79
2022/01/25 17:03:40;;;;;;;203.50;70.93;;;;;;;;;;4941309;29;20034;-79
2022/01/25 17:06:06;;;;;;;209.50;73.88;;;;;;;;;;4956045;29;20055;-78
2022/01/25 17:08:37;;;;;;;210.25;73.88;;;;;;;;;;4957331;29;20074;-78
2022/01/25 17:11:03;;;;;;;199.43;68.72;;;;;;;;;;4959160;28;20476;-79
2022/01/25 17:13:32;;;;;;;212.80;72.22;;;;;;;;;;4958589;28;20027;-78
2022/01/25 17:16:00;;;;;;;198.02;64.38;;;;;;;;;;4941071;29;20493;-78
2022/01/25 17:18:28;;;;;;;195.30;68.85;;;;;;;;;;4953123;29;20027;-78
2022/01/25 17:20:55;;;;;;;239.15;79.55;;;;;;;;;;4955760;28;20065;-78
2022/01/25 17:23:23;;;;;;;260.80;92.43;;;;;;;;;;4958296;28;20509;-78
2022/01/25 17:25:49;;;;;;;269.63;93.00;;;;;;;;;;4956095;29;20039;-78
2022/01/25 17:28:16;;;;;;;274.30;94.03;;;;;;;;;;4965011;28;20023;-78
2022/01/25 17:30:44;;;;;;;283.73;96.93;;;;;;;;;;4955478;29;20057;-78
2022/01/25 17:33:12;;;;;;;308.17;100.55;;;;;;;;;;4956934;29;20035;-78
2022/01/25 17:35:39;;;;;;;296.77;99.40;;;;;;;;;;4606820;29;9999977;-79
2022/01/25 17:38:06;;;;;;;262.52;90.85;;;;;;;;;;4940781;29;20027;-78
2022/01/25 17:40:35;;;;;;;253.02;87.25;;;;;;;;;;4937965;29;20044;-78
2022/01/25 17:43:03;;;;;;;261.50;89.55;;;;;;;;;;4951767;29;20418;-78
2022/01/25 17:45:29;;;;;;;277.73;94.00;;;;;;;;;;4938056;29;21845;-78
2022/01/25 17:47:57;;;;;;;260.30;95.05;;;;;;;;;;4939221;28;20032;-78
2022/01/25 17:50:23;;;;;;;262.33;97.28;;;;;;;;;;4944116;29;20035;-78
2022/01/25 17:52:50;;;;;;;277.50;98.53;;;;;;;;;;4963592;28;20122;-78
2022/01/25 17:55:16;;;;;;;283.40;100.93;;;;;;;;;;4955886;29;20078;-78
2022/01/25 17:57:43;;;;;;;265.98;102.93;;;;;;;;;;4939075;29;20020;-78
2022/01/25 18:02:28;;;;;;;264.05;92.72;;;;;;;;;;5081906;27;20390;-78
2022/01/25 18:04:55;;;;;;;265.50;89.72;;;;;;;;;;5093317;28;20024;-78
2022/01/25 18:07:22;;;;;;;245.27;80.60;;;;;;;;;;5063249;28;20124;-78
2022/01/25 18:09:50;;;;;;;207.05;75.43;;;;;;;;;;5068812;28;20036;-78
2022/01/25 18:12:17;;;;;;;218.45;72.68;;;;;;;;;;5073452;28;20040;-78
2022/01/25 18:14:44;;;;;;;217.75;71.47;;;;;;;;;;5081088;28;20094;-78
2022/01/25 18:17:15;;;;;;;204.02;72.55;;;;;;;;;;5078161;28;20033;-77
2022/01/25 18:19:43;;;;;;;210.82;73.40;;;;;;;;;;5068370;28;20038;-78
2022/01/25 18:22:21;;;;;;;212.57;74.90;;;;;;;;;;5070393;28;20052;-77
2022/01/25 18:24:59;;;;;;;199.43;66.85;;;;;;;;;;5083820;28;20379;-78
2022/01/25 18:27:34;;;;;;;208.65;70.88;;;;;;;;;;5063291;28;20051;-78
2022/01/25 18:30:07;;;;;;;209.55;74.07;;;;;;;;;;5085375;28;20020;-78
2022/01/25 18:35:44;;;;;;;247.23;84.18;;;;;;;;;;5051423;28;20024;-78
2022/01/25 18:38:11;;;;;;;259.08;88.13;;;;;;;;;;5069459;28;20046;-78
2022/01/25 18:40:37;;;;;;;272.92;93.78;;;;;;;;;;5084426;28;20390;-78
2022/01/25 18:43:16;;;;;;;272.80;91.70;;;;;;;;;;5068212;28;20040;-78
2022/01/25 18:45:44;;;;;;;237.10;81.03;;;;;;;;;;5080322;28;20484;-78
2022/01/25 18:48:14;;;;;;;257.48;82.22;;;;;;;;;;5067828;28;20028;-78
2022/01/25 18:50:44;;;;;;;257.88;89.20;;;;;;;;;;5067837;28;20025;-77
2022/01/25 18:53:11;;;;;;;253.32;90.53;;;;;;;;;;5067885;28;20040;-77
2022/01/25 18:55:48;;;;;;;279.88;96.28;;;;;;;;;;5069368;28;20420;-78
2022/01/25 18:58:14;;;;;;;286.15;101.95;;;;;;;;;;5084351;28;20086;-77
2022/01/25 19:00:41;;;;;;;271.08;94.70;;;;;;;;;;5086652;28;20048;-78
2022/01/25 19:03:25;;;;;;;261.73;94.28;;;;;;;;;;5075934;28;20033;-77
2022/01/25 19:05:52;;;;;;;236.00;82.50;;;;;;;;;;5078047;28;20025;-78
2022/01/25 19:08:20;;;;;;;215.07;74.40;;;;;;;;;;5084495;28;20449;-78
2022/01/25 19:10:57;;;;;;;202.35;73.32;;;;;;;;;;5067538;28;20461;-77
2022/01/25 19:13:24;;;;;;;206.30;68.68;;;;;;;;;;5061615;28;20448;-78
2022/01/25 19:15:51;;;;;;;179.35;63.35;;;;;;;;;;5050605;28;20041;-77
2022/01/25 19:18:23;;;;;;;182.43;64.95;;;;;;;;;;5066372;28;20390;-78
2022/01/25 19:20:49;;;;;;;180.43;61.97;;;;;;;;;;5066956;28;20033;-78
2022/01/25 19:23:16;;;;;;;187.25;64.30;;;;;;;;;;5054199;28;20074;-78
2022/01/25 19:25:47;;;;;;;169.07;62.15;;;;;;;;;;5069486;28;20051;-78
2022/01/25 19:28:16;;;;;;;175.65;59.03;;;;;;;;;;5057611;28;20033;-78
2022/01/25 19:30:42;;;;;;;173.50;60.90;;;;;;;;;;5073850;28;20078;-78
2022/01/25 19:33:18;;;;;;;170.43;59.05;;;;;;;;;;5059386;28;20486;-78
2022/01/25 19:35:45;;;;;;;166.52;57.92;;;;;;;;;;5070943;28;20369;-77
2022/01/25 19:38:15;;;;;;;189.52;66.90;;;;;;;;;;5070663;28;20021;-77
2022/01/25 19:40:43;;;;;;;224.13;76.75;;;;;;;;;;5073811;28;20035;-77
2022/01/25 19:43:13;;;;;;;281.90;99.85;;;;;;;;;;5068231;28;20056;-77
2022/01/25 19:45:39;;;;;;;253.07;88.07;;;;;;;;;;5054186;28;20074;-78
2022/01/25 19:48:16;;;;;;;232.07;79.75;;;;;;;;;;5053717;28;20032;-78
2022/01/25 19:50:42;;;;;;;216.93;73.80;;;;;;;;;;5050458;28;20472;-78
2022/01/25 19:53:11;;;;;;;202.40;69.15;;;;;;;;;;5073459;28;20028;-78
2022/01/25 19:55:54;;;;;;;193.63;65.53;;;;;;;;;;5057752;28;20450;-77
2022/01/25 19:58:21;;;;;;;173.40;58.33;;;;;;;;;;5053448;28;20602;-78
2022/01/25 20:01:05;;;;;;;181.50;63.50;;;;;;;;;;5067797;28;20052;-78
2022/01/25 20:03:32;;;;;;;186.02;62.33;;;;;;;;;;5056995;28;20512;-77
2022/01/25 20:06:00;;;;;;;196.73;67.78;;;;;;;;;;5070151;28;20025;-77
2022/01/25 20:08:35;;;;;;;189.20;63.90;;;;;;;;;;5058298;28;20029;-77
2022/01/25 20:11:05;;;;;;;174.32;60.67;;;;;;;;;;5064544;28;20170;-78
2022/01/25 20:13:31;;;;;;;181.38;58.30;;;;;;;;;;5054295;28;20017;-77
2022/01/25 20:16:08;;;;;;;174.75;58.97;;;;;;;;;;5063549;28;20107;-78
2022/01/25 20:18:35;;;;;;;169.90;58.67;;;;;;;;;;5072926;28;20032;-78
2022/01/25 20:21:09;;;;;;;175.10;59.90;;;;;;;;;;5063407;28;20031;-77
2022/01/25 20:23:48;;;;;;;165.93;57.90;;;;;;;;;;5066728;28;20898;-77
2022/01/25 20:26:31;;;;;;;170.35;56.17;;;;;;;;;;5038208;28;20488;-78
2022/01/25 20:29:29;;;;;;;176.98;59.38;;;;;;;;;;5033233;28;20102;-78
2022/01/25 20:31:48;;;;;;;186.55;63.67;;;;;;;;;;5052126;28;20029;-78
2022/01/25 20:34:15;;;;;;;179.35;60.63;;;;;;;;;;5056581;28;20102;-77
2022/01/25 20:36:47;;;;;;;175.57;58.75;;;;;;;;;;5050604;28;20071;-78
2022/01/25 20:39:13;;;;;;;154.43;55.63;;;;;;;;;;5069306;28;20030;-77
2022/01/25 20:41:42;;;;;;;168.52;59.42;;;;;;;;;;5072546;28;20471;-78
2022/01/25 20:44:09;;;;;;;170.85;56.78;;;;;;;;;;5071328;28;20021;-77
2022/01/25 20:46:39;;;;;;;165.85;56.10;;;;;;;;;;5053966;28;20057;-78
2022/01/25 20:49:06;;;;;;;159.32;53.72;;;;;;;;;;5069267;28;20056;-78
2022/01/25 20:51:33;;;;;;;179.90;58.70;;;;;;;;;;5063440;28;20532;-78
2022/01/25 20:54:15;;;;;;;163.60;57.53;;;;;;;;;;5064325;28;20021;-78
2022/01/25 20:56:42;;;;;;;164.65;56.33;;;;;;;;;;5071927;28;20021;-78
2022/01/25 20:59:20;;;;;;;162.30;54.95;;;;;;;;;;5067651;28;20026;-77
2022/01/25 21:01:50;;;;;;;145.38;51.28;;;;;;;;;;5061788;28;20048;-78
2022/01/25 21:04:32;;;;;;;152.75;52.05;;;;;;;;;;5052134;28;20047;-77
2022/01/25 21:07:17;;;;;;;170.75;56.05;;;;;;;;;;5036910;28;20020;-77
2022/01/25 21:09:44;;;;;;;159.10;55.20;;;;;;;;;;5063451;28;20028;-77
2022/01/25 21:15:14;;;;;;;158.45;54.38;;;;;;;;;;5053795;28;20067;-75
2022/01/25 21:18:02;;;;;;;163.27;53.65;;;;;;;;;;5073333;28;20388;-77
2022/01/25 21:20:30;;;;;;;155.02;52.92;;;;;;;;;;5069202;28;20043;-78
2022/01/25 21:23:18;;;;;;;168.50;54.75;;;;;;;;;;5068862;28;20159;-78
2022/01/25 21:25:45;;;;;;;161.60;56.45;;;;;;;;;;5068754;28;20032;-78
2022/01/25 21:28:11;;;;;;;162.50;55.72;;;;;;;;;;5068409;28;20059;-78
2022/01/25 21:30:47;;;;;;;176.95;59.47;;;;;;;;;;5051738;28;20081;-78
2022/01/25 21:33:14;;;;;;;180.55;61.40;;;;;;;;;;5071854;28;20466;-77
2022/01/25 21:35:45;;;;;;;177.70;61.08;;;;;;;;;;5071710;28;20029;-77
2022/01/25 21:38:14;;;;;;;206.60;65.85;;;;;;;;;;5054976;28;20033;-78
2022/01/25 21:40:41;;;;;;;198.43;67.93;;;;;;;;;;5067548;28;20443;-77
2022/01/25 21:43:16;;;;;;;222.50;69.32;;;;;;;;;;5058003;28;20024;-77
2022/01/25 21:45:42;;;;;;;193.07;67.10;;;;;;;;;;5064211;28;20111;-78
2022/01/25 21:48:31;;;;;;;218.77;70.45;;;;;;;;;;5063382;28;20025;-78
2022/01/25 21:50:57;;;;;;;223.68;71.75;;;;;;;;;;5044080;28;20032;-77
2022/01/25 21:53:25;;;;;;;207.68;71.03;;;;;;;;;;5051592;28;20029;-78
2022/01/25 21:55:52;;;;;;;202.95;70.15;;;;;;;;;;5071514;28;20097;-78
2022/01/25 22:01:48;;;;;;;181.45;60.00;;;;;;;;;;5041497;28;20055;-77
2022/01/25 22:04:17;;;;;;;166.77;53.00;;;;;;;;;;5054364;28;20479;-78
2022/01/25 22:06:53;;;;;;;159.32;52.67;;;;;;;;;;5031543;28;20034;-78
2022/01/25 22:09:23;;;;;;;154.30;53.88;;;;;;;;;;5049512;28;20025;-77
2022/01/25 22:11:54;;;;;;;161.73;54.45;;;;;;;;;;5068285;28;20431;-77
2022/01/25 22:14:38;;;;;;;162.52;52.30;;;;;;;;;;5071188;28;20021;-78
2022/01/25 22:17:05;;;;;;;170.48;54.35;;;;;;;;;;5053956;28;20025;-78
2022/01/25 22:19:31;;;;;;;153.43;53.50;;;;;;;;;;5058599;28;20035;-78
2022/01/25 22:21:59;;;;;;;167.63;53.03;;;;;;;;;;5072869;28;20471;-78
2022/01/25 22:24:25;;;;;;;135.60;49.67;;;;;;;;;;5070885;28;20067;-78
2022/01/25 22:26:51;;;;;;;148.77;52.00;;;;;;;;;;5071444;28;20428;-78
2022/01/25 22:29:18;;;;;;;152.90;52.05;;;;;;;;;;5067443;28;20032;-78
2022/01/25 22:31:44;;;;;;;139.77;48.28;;;;;;;;;;5053048;28;20037;-78
2022/01/25 22:34:11;;;;;;;161.38;55.25;;;;;;;;;;5052434;28;20103;-78
2022/01/25 22:36:39;;;;;;;160.20;57.25;;;;;;;;;;5058629;28;20032;-78
2022/01/25 22:39:05;;;;;;;167.63;56.20;;;;;;;;;;5050955;28;20120;-77
2022/01/25 22:41:35;;;;;;;168.52;56.63;;;;;;;;;;5051030;28;20025;-78
2022/01/25 22:44:03;;;;;;;168.65;57.03;;;;;;;;;;5059557;28;20427;-78
2022/01/25 22:49:31;;;;;;;169.05;57.13;;;;;;;;;;5059746;28;20113;-78
2022/01/25 22:51:59;;;;;;;171.27;55.05;;;;;;;;;;5071750;28;20037;-78
2022/01/25 22:54:42;;;;;;;184.15;60.72;;;;;;;;;;5071933;28;20028;-78
2022/01/25 22:57:10;;;;;;;190.07;56.65;;;;;;;;;;5064411;28;20520;-78
2022/01/25 22:59:39;;;;;;;183.23;60.88;;;;;;;;;;5044048;28;20044;-78
2022/01/25 23:02:16;;;;;;;160.43;54.08;;;;;;;;;;5054222;28;20145;-78
2022/01/25 23:04:43;;;;;;;158.30;52.72;;;;;;;;;;5071471;28;20115;-78
2022/01/25 23:07:15;;;;;;;151.30;52.88;;;;;;;;;;5071605;28;20372;-78
2022/01/25 23:09:41;;;;;;;176.45;59.08;;;;;;;;;;5034687;28;20032;-78
2022/01/25 23:15:03;;;;;;;171.80;59.30;;;;;;;;;;5055728;28;20549;-78
2022/01/25 23:18:16;;;;;;;194.15;61.05;;;;;;;;;;5071133;28;20025;-78
2022/01/25 23:20:43;;;;;;;174.13;59.08;;;;;;;;;;5049969;28;20084;-78
2022/01/25 23:23:09;;;;;;;174.30;57.88;;;;;;;;;;5064977;28;20029;-78
2022/01/25 23:26:06;;;;;;;180.65;60.35;;;;;;;;;;5055619;28;20028;-78
2022/01/25 23:28:39;;;;;;;188.40;60.22;;;;;;;;;;5052692;28;20064;-78
2022/01/25 23:31:18;;;;;;;189.10;62.20;;;;;;;;;;5037915;28;20040;-78
2022/01/25 23:36:48;;;;;;;192.93;62.75;;;;;;;;;;5055494;28;20563;-78
2022/01/25 23:39:25;;;;;;;208.88;69.13;;;;;;;;;;5053794;28;20033;-78
2022/01/25 23:42:06;;;;;;;227.70;71.85;;;;;;;;;;5054479;28;20025;-78
2022/01/25 23:44:47;;;;;;;213.82;71.93;;;;;;;;;;5052466;28;20124;-78
2022/01/25 23:47:51;;;;;;;212.65;68.93;;;;;;;;;;5073135;28;20042;-78
